Time;durP1;ratioP1;P1;durP2;ratioP2;P2;SDS_P1;SDS_P2;PMS_P1;PMS_P2;Temp;Humidity;BMP_temperature;BMP_pressure;BME280_temperature;BME280_humidity;BME280_pressure;Samples;Min_cycle;Max_cycle;Signal;HPM_P1;HPM_P2
2023/09/07 00:02:10;;;;;;;4.47;4.05;;;;;;;;;;5033065;28;20631;-77
2023/09/07 00:04:38;;;;;;;5.60;3.67;;;;;;;;;;5032152;28;20669;-77
2023/09/07 00:07:05;;;;;;;3.33;3.08;;;;;;;;;;5038718;28;20293;-77
2023/09/07 00:09:32;;;;;;;3.60;3.30;;;;;;;;;;5033454;28;20203;-78
2023/09/07 00:12:00;;;;;;;3.70;3.40;;;;;;;;;;5032439;28;20211;-75
2023/09/07 00:14:27;;;;;;;3.42;3.13;;;;;;;;;;5033222;28;20223;-77
2023/09/07 00:16:54;;;;;;;3.70;3.25;;;;;;;;;;5031524;28;20261;-78
2023/09/07 00:19:21;;;;;;;3.55;3.25;;;;;;;;;;5032759;28;20203;-78
2023/09/07 00:21:51;;;;;;;3.60;3.30;;;;;;;;;;5035845;28;20662;-77
2023/09/07 00:24:19;;;;;;;4.22;3.83;;;;;;;;;;5035409;28;20210;-76
2023/09/07 00:26:46;;;;;;;3.70;3.35;;;;;;;;;;5031725;28;20203;-77
2023/09/07 00:29:13;;;;;;;3.78;3.58;;;;;;;;;;5031770;28;20674;-77
2023/09/07 00:31:41;;;;;;;3.60;3.30;;;;;;;;;;5031998;28;20234;-78
2023/09/07 00:34:09;;;;;;;3.58;3.28;;;;;;;;;;5032960;28;20249;-79
2023/09/07 00:36:36;;;;;;;6.35;3.45;;;;;;;;;;5032725;28;20206;-76
2023/09/07 00:39:04;;;;;;;3.88;3.60;;;;;;;;;;5033084;28;20198;-77
2023/09/07 00:41:32;;;;;;;3.70;3.40;;;;;;;;;;5032303;28;20887;-78
2023/09/07 00:43:59;;;;;;;4.28;3.63;;;;;;;;;;5032745;28;20214;-79
2023/09/07 00:46:26;;;;;;;4.05;3.75;;;;;;;;;;5033072;28;20217;-77
2023/09/07 00:48:54;;;;;;;4.20;3.83;;;;;;;;;;5035497;28;20198;-79
2023/09/07 00:51:21;;;;;;;4.05;3.65;;;;;;;;;;5035537;28;20234;-78
2023/09/07 00:53:49;;;;;;;5.43;3.70;;;;;;;;;;5031837;28;20199;-79
2023/09/07 00:56:16;;;;;;;4.60;4.07;;;;;;;;;;5033629;28;20207;-79
2023/09/07 00:58:43;;;;;;;4.00;3.60;;;;;;;;;;5032918;28;20209;-79
2023/09/07 01:01:11;;;;;;;3.97;3.65;;;;;;;;;;5031663;28;20787;-79
2023/09/07 01:03:38;;;;;;;3.80;3.40;;;;;;;;;;5032514;28;20209;-78
2023/09/07 01:06:13;;;;;;;4.03;3.63;;;;;;;;;;5031774;28;20207;-80
2023/09/07 01:08:45;;;;;;;4.05;3.60;;;;;;;;;;5032162;28;20622;-76
2023/09/07 01:11:22;;;;;;;5.68;3.63;;;;;;;;;;5032345;28;20309;-75
2023/09/07 01:13:52;;;;;;;3.63;3.33;;;;;;;;;;5032384;28;20203;-77
2023/09/07 01:16:20;;;;;;;3.97;3.65;;;;;;;;;;5032247;28;20230;-78
2023/09/07 01:18:51;;;;;;;3.53;3.30;;;;;;;;;;5023786;28;20230;-77
2023/09/07 01:21:18;;;;;;;3.60;3.30;;;;;;;;;;5031214;28;20593;-79
2023/09/07 01:23:47;;;;;;;4.47;3.72;;;;;;;;;;5023881;28;20222;-78
2023/09/07 01:26:14;;;;;;;4.82;4.32;;;;;;;;;;5031467;28;20207;-76
2023/09/07 01:28:41;;;;;;;4.20;3.80;;;;;;;;;;5031499;28;20240;-79
2023/09/07 01:31:09;;;;;;;3.80;3.50;;;;;;;;;;5031916;28;20250;-78
2023/09/07 01:33:37;;;;;;;3.78;3.47;;;;;;;;;;5031016;28;20203;-77
2023/09/07 01:36:04;;;;;;;4.10;3.80;;;;;;;;;;5031406;28;20229;-77
2023/09/07 01:38:31;;;;;;;4.40;3.90;;;;;;;;;;5030985;28;20630;-78
2023/09/07 01:41:00;;;;;;;4.05;3.75;;;;;;;;;;5030974;28;20225;-78
2023/09/07 01:43:28;;;;;;;6.15;4.40;;;;;;;;;;5030810;28;20292;-77
2023/09/07 01:45:55;;;;;;;5.30;4.50;;;;;;;;;;5031401;28;20207;-78
2023/09/07 01:48:22;;;;;;;5.50;3.67;;;;;;;;;;5031576;28;20219;-77
2023/09/07 01:50:53;;;;;;;4.55;4.18;;;;;;;;;;5031467;28;20633;-77
2023/09/07 01:53:21;;;;;;;4.57;4.18;;;;;;;;;;5030867;28;20206;-77
2023/09/07 01:55:48;;;;;;;5.30;4.45;;;;;;;;;;5050458;28;20218;-75
2023/09/07 01:58:15;;;;;;;5.68;4.53;;;;;;;;;;5050702;28;20576;-79
2023/09/07 02:00:42;;;;;;;4.63;4.22;;;;;;;;;;5037675;28;20226;-79
2023/09/07 02:03:10;;;;;;;5.90;4.32;;;;;;;;;;5032658;28;20211;-79
2023/09/07 02:05:37;;;;;;;4.38;4.07;;;;;;;;;;5041206;28;20210;-78
2023/09/07 02:08:05;;;;;;;5.22;4.43;;;;;;;;;;5048513;28;20248;-77
2023/09/07 02:10:33;;;;;;;6.85;4.95;;;;;;;;;;5052476;28;20226;-79
2023/09/07 02:13:00;;;;;;;5.25;4.80;;;;;;;;;;5053823;28;20248;-78
2023/09/07 02:15:28;;;;;;;4.93;4.32;;;;;;;;;;5037041;28;20843;-76
2023/09/07 02:17:55;;;;;;;6.18;5.03;;;;;;;;;;5048819;28;20799;-78
2023/09/07 02:20:22;;;;;;;5.60;4.90;;;;;;;;;;5049673;28;20236;-76
2023/09/07 02:22:50;;;;;;;6.07;5.57;;;;;;;;;;5051558;28;20206;-78
2023/09/07 02:25:17;;;;;;;5.60;4.60;;;;;;;;;;5053201;28;20210;-79
2023/09/07 02:27:44;;;;;;;5.40;4.88;;;;;;;;;;5041648;28;20207;-78
2023/09/07 02:30:12;;;;;;;5.10;4.60;;;;;;;;;;5041019;28;20228;-77
2023/09/07 02:32:41;;;;;;;5.38;4.88;;;;;;;;;;5036888;28;20223;-78
2023/09/07 02:35:08;;;;;;;5.93;5.07;;;;;;;;;;5051441;28;20276;-77
2023/09/07 02:37:38;;;;;;;4.80;4.45;;;;;;;;;;5051943;28;20259;-78
2023/09/07 02:40:09;;;;;;;5.65;5.15;;;;;;;;;;5049789;28;20598;-78
2023/09/07 02:42:36;;;;;;;6.38;4.80;;;;;;;;;;5043921;28;20205;-78
2023/09/07 02:45:04;;;;;;;5.82;5.32;;;;;;;;;;5052474;28;20202;-77
2023/09/07 02:47:31;;;;;;;6.10;5.18;;;;;;;;;;5046029;28;20222;-78
2023/09/07 02:49:59;;;;;;;5.10;4.70;;;;;;;;;;5052765;28;20249;-77
2023/09/07 02:52:26;;;;;;;7.25;5.53;;;;;;;;;;5043618;28;20280;-80
2023/09/07 02:54:53;;;;;;;5.57;5.07;;;;;;;;;;5046017;28;20697;-78
2023/09/07 02:57:20;;;;;;;5.85;5.20;;;;;;;;;;5039988;28;20198;-77
2023/09/07 02:59:47;;;;;;;5.95;5.45;;;;;;;;;;5051182;28;20291;-77
2023/09/07 03:02:14;;;;;;;5.25;4.85;;;;;;;;;;5044180;28;20253;-77
2023/09/07 03:04:42;;;;;;;6.07;4.93;;;;;;;;;;5041299;28;20213;-78
2023/09/07 03:07:09;;;;;;;5.47;4.88;;;;;;;;;;5044942;28;20225;-80
2023/09/07 03:09:37;;;;;;;5.90;5.35;;;;;;;;;;5041708;28;20214;-78
2023/09/07 03:12:07;;;;;;;5.65;5.10;;;;;;;;;;5035209;28;20259;-76
2023/09/07 03:14:35;;;;;;;7.03;5.50;;;;;;;;;;5040463;28;20214;-79
2023/09/07 03:17:03;;;;;;;5.65;5.15;;;;;;;;;;5045523;28;20305;-78
2023/09/07 03:19:31;;;;;;;9.20;5.72;;;;;;;;;;5047243;28;20202;-76
2023/09/07 03:21:59;;;;;;;7.15;5.85;;;;;;;;;;5044228;28;20203;-78
2023/09/07 03:24:27;;;;;;;7.90;5.53;;;;;;;;;;5048694;28;20198;-78
2023/09/07 03:26:55;;;;;;;6.18;5.57;;;;;;;;;;5038464;28;20223;-77
2023/09/07 03:29:22;;;;;;;5.97;5.47;;;;;;;;;;5040142;28;20269;-80
2023/09/07 03:31:49;;;;;;;5.70;5.20;;;;;;;;;;5021104;28;20268;-78
2023/09/07 03:34:16;;;;;;;6.35;5.40;;;;;;;;;;5051233;28;20234;-79
2023/09/07 03:36:44;;;;;;;5.90;5.35;;;;;;;;;;5044771;28;20233;-78
2023/09/07 03:39:11;;;;;;;6.18;5.57;;;;;;;;;;5043866;28;20206;-75
2023/09/07 03:41:38;;;;;;;6.25;5.55;;;;;;;;;;5049977;28;20236;-76
2023/09/07 03:44:06;;;;;;;5.97;5.47;;;;;;;;;;5045761;28;20226;-81
2023/09/07 03:46:33;;;;;;;5.85;5.35;;;;;;;;;;5034580;28;20205;-79
2023/09/07 03:49:00;;;;;;;6.35;5.60;;;;;;;;;;5025796;28;20298;-77
2023/09/07 03:51:27;;;;;;;6.25;5.72;;;;;;;;;;5046577;28;20229;-77
2023/09/07 03:53:55;;;;;;;6.40;5.68;;;;;;;;;;5050683;28;20644;-77
2023/09/07 03:56:22;;;;;;;5.65;5.15;;;;;;;;;;5034330;28;20226;-77
2023/09/07 03:58:49;;;;;;;6.13;5.60;;;;;;;;;;5042652;28;20284;-78
2023/09/07 04:01:16;;;;;;;5.63;5.13;;;;;;;;;;5035874;28;20227;-79
2023/09/07 04:03:44;;;;;;;7.40;5.77;;;;;;;;;;5047183;28;20215;-79
2023/09/07 04:06:11;;;;;;;6.32;5.82;;;;;;;;;;5048902;28;20210;-78
2023/09/07 04:08:39;;;;;;;6.07;5.57;;;;;;;;;;5034196;28;20211;-77
2023/09/07 04:11:06;;;;;;;6.53;5.93;;;;;;;;;;5044178;28;20219;-78
2023/09/07 04:13:33;;;;;;;6.20;5.70;;;;;;;;;;5045925;28;20275;-77
2023/09/07 04:16:01;;;;;;;6.70;6.00;;;;;;;;;;5038174;28;20229;-76
2023/09/07 04:18:28;;;;;;;6.37;5.77;;;;;;;;;;5045179;28;20225;-77
2023/09/07 04:21:04;;;;;;;6.60;5.93;;;;;;;;;;5047552;28;20271;-77
2023/09/07 04:23:32;;;;;;;7.57;6.07;;;;;;;;;;5040080;28;20209;-77
2023/09/07 04:26:09;;;;;;;7.23;6.53;;;;;;;;;;5040751;28;20203;-77
2023/09/07 04:28:37;;;;;;;8.67;6.43;;;;;;;;;;5046902;28;20206;-78
2023/09/07 04:31:05;;;;;;;7.67;6.83;;;;;;;;;;5036066;28;20238;-77
2023/09/07 04:33:33;;;;;;;9.53;6.03;;;;;;;;;;5040290;28;20217;-76
2023/09/07 04:36:07;;;;;;;7.53;6.70;;;;;;;;;;5040354;28;20233;-77
2023/09/07 04:38:34;;;;;;;7.67;6.53;;;;;;;;;;5030846;28;20199;-78
2023/09/07 04:41:12;;;;;;;7.30;6.60;;;;;;;;;;5037636;28;20226;-80
2023/09/07 04:43:40;;;;;;;9.27;6.50;;;;;;;;;;5043662;28;20800;-78
2023/09/07 04:46:08;;;;;;;8.27;7.20;;;;;;;;;;5044125;28;20202;-76
2023/09/07 04:48:35;;;;;;;12.77;6.80;;;;;;;;;;5040544;28;20205;-78
2023/09/07 04:51:03;;;;;;;7.83;6.73;;;;;;;;;;5040956;28;20218;-76
2023/09/07 04:53:32;;;;;;;7.40;6.40;;;;;;;;;;5039986;28;20621;-76
2023/09/07 04:55:59;;;;;;;9.67;6.90;;;;;;;;;;5042764;28;20221;-77
2023/09/07 04:58:27;;;;;;;8.07;7.10;;;;;;;;;;5046609;28;20217;-77
2023/09/07 05:00:54;;;;;;;6.93;6.27;;;;;;;;;;5048396;28;20222;-77
2023/09/07 05:03:21;;;;;;;7.13;6.47;;;;;;;;;;5033692;28;20294;-77
2023/09/07 05:05:54;;;;;;;8.07;7.27;;;;;;;;;;5039346;28;20666;-77
2023/09/07 05:08:22;;;;;;;8.00;6.93;;;;;;;;;;5047962;28;20210;-78
2023/09/07 05:10:49;;;;;;;7.47;6.77;;;;;;;;;;5061748;28;20230;-77
2023/09/07 05:13:17;;;;;;;7.93;7.13;;;;;;;;;;5038088;28;20213;-78
2023/09/07 05:15:48;;;;;;;8.53;6.93;;;;;;;;;;5042112;28;20230;-78
2023/09/07 05:18:15;;;;;;;8.73;7.17;;;;;;;;;;5046264;28;20208;-78
2023/09/07 05:20:44;;;;;;;10.97;7.13;;;;;;;;;;5039989;28;20739;-79
2023/09/07 05:23:15;;;;;;;9.33;7.20;;;;;;;;;;5040463;28;20207;-78
2023/09/07 05:25:46;;;;;;;7.60;6.90;;;;;;;;;;5040466;28;20552;-78
2023/09/07 05:28:14;;;;;;;8.07;7.37;;;;;;;;;;5042090;28;20206;-77
2023/09/07 05:30:41;;;;;;;10.07;7.67;;;;;;;;;;5041864;28;20899;-76
2023/09/07 05:33:13;;;;;;;8.80;7.37;;;;;;;;;;5034194;28;20246;-78
2023/09/07 05:35:41;;;;;;;8.17;7.40;;;;;;;;;;5027111;28;20702;-78
2023/09/07 05:38:09;;;;;;;9.80;7.77;;;;;;;;;;5043395;28;20861;-79
2023/09/07 05:40:37;;;;;;;8.60;7.80;;;;;;;;;;5034620;28;20231;-77
2023/09/07 05:43:04;;;;;;;8.97;8.00;;;;;;;;;;5037252;28;20199;-77
2023/09/07 05:45:36;;;;;;;9.63;8.73;;;;;;;;;;5025791;28;20207;-77
2023/09/07 05:48:04;;;;;;;8.50;7.70;;;;;;;;;;5034888;28;20214;-76
2023/09/07 05:50:32;;;;;;;9.30;8.37;;;;;;;;;;5044039;28;20234;-79
2023/09/07 05:52:59;;;;;;;11.03;9.97;;;;;;;;;;5026952;28;20206;-78
2023/09/07 05:55:26;;;;;;;10.87;9.87;;;;;;;;;;5036733;28;20239;-78
2023/09/07 05:58:00;;;;;;;10.53;9.03;;;;;;;;;;5030091;28;20610;-76
2023/09/07 06:00:31;;;;;;;9.40;8.50;;;;;;;;;;5029122;28;20228;-77
2023/09/07 06:02:58;;;;;;;9.95;7.88;;;;;;;;;;5021099;28;20221;-79
2023/09/07 06:05:26;;;;;;;9.23;7.80;;;;;;;;;;5047164;28;20213;-79
2023/09/07 06:07:53;;;;;;;9.70;8.80;;;;;;;;;;5041772;28;20219;-78
2023/09/07 06:10:20;;;;;;;9.90;8.00;;;;;;;;;;5041745;28;20725;-78
2023/09/07 06:12:47;;;;;;;10.37;8.00;;;;;;;;;;5048135;28;20250;-78
2023/09/07 06:15:15;;;;;;;9.33;8.40;;;;;;;;;;5031991;28;20291;-77
2023/09/07 06:17:42;;;;;;;10.17;9.10;;;;;;;;;;5038317;28;20615;-77
2023/09/07 06:20:10;;;;;;;10.75;9.65;;;;;;;;;;5032308;28;20226;-77
2023/09/07 06:22:37;;;;;;;10.87;9.53;;;;;;;;;;5051124;28;20202;-77
2023/09/07 06:25:04;;;;;;;11.00;9.90;;;;;;;;;;5045088;28;20650;-76
2023/09/07 06:27:32;;;;;;;10.32;9.23;;;;;;;;;;5033298;28;20217;-78
2023/09/07 06:29:59;;;;;;;12.05;10.10;;;;;;;;;;5048457;28;20280;-77
2023/09/07 06:32:26;;;;;;;10.02;9.05;;;;;;;;;;5050021;28;20198;-77
2023/09/07 06:34:53;;;;;;;10.38;9.18;;;;;;;;;;5036967;28;20207;-77
2023/09/07 06:37:24;;;;;;;9.90;8.48;;;;;;;;;;5039750;28;20815;-80
2023/09/07 06:39:51;;;;;;;11.20;9.85;;;;;;;;;;5041550;28;20232;-76
2023/09/07 06:42:20;;;;;;;10.82;9.80;;;;;;;;;;5045686;28;20240;-77
2023/09/07 06:44:48;;;;;;;11.00;9.32;;;;;;;;;;5049016;28;20203;-75
2023/09/07 06:47:15;;;;;;;9.80;8.93;;;;;;;;;;5053256;28;20275;-78
2023/09/07 06:49:42;;;;;;;9.52;8.40;;;;;;;;;;5046912;28;20207;-76
2023/09/07 06:52:13;;;;;;;9.48;8.60;;;;;;;;;;5042498;28;20229;-77
2023/09/07 06:54:43;;;;;;;9.77;8.60;;;;;;;;;;5046225;28;20215;-76
2023/09/07 06:57:10;;;;;;;10.40;9.40;;;;;;;;;;5037863;28;20227;-76
2023/09/07 06:59:38;;;;;;;9.57;8.60;;;;;;;;;;5043936;28;20602;-76
2023/09/07 07:02:05;;;;;;;8.93;8.02;;;;;;;;;;5042633;28;20202;-78
2023/09/07 07:04:33;;;;;;;9.02;8.13;;;;;;;;;;5040420;28;20208;-75
2023/09/07 07:07:03;;;;;;;8.60;7.80;;;;;;;;;;5043861;28;20199;-78
2023/09/07 07:09:31;;;;;;;8.52;7.72;;;;;;;;;;5046863;28;20234;-78
2023/09/07 07:12:01;;;;;;;8.85;8.05;;;;;;;;;;5033030;28;20202;-78
2023/09/07 07:14:28;;;;;;;8.65;7.85;;;;;;;;;;5032604;28;20235;-78
2023/09/07 07:16:55;;;;;;;8.55;7.68;;;;;;;;;;5044195;28;20272;-76
2023/09/07 07:19:24;;;;;;;8.40;7.70;;;;;;;;;;5042580;28;20213;-77
2023/09/07 07:21:51;;;;;;;8.02;7.22;;;;;;;;;;5043991;28;20250;-76
2023/09/07 07:24:18;;;;;;;7.82;7.10;;;;;;;;;;5035627;28;20219;-76
2023/09/07 07:26:46;;;;;;;9.23;8.32;;;;;;;;;;5045354;28;20628;-78
2023/09/07 07:29:14;;;;;;;9.18;8.27;;;;;;;;;;5043656;28;20211;-77
2023/09/07 07:31:41;;;;;;;8.75;7.97;;;;;;;;;;5039413;28;20284;-76
2023/09/07 07:34:09;;;;;;;9.60;8.70;;;;;;;;;;5042088;28;20203;-78
2023/09/07 07:36:38;;;;;;;7.93;7.13;;;;;;;;;;5040461;28;20313;-76
2023/09/07 07:39:09;;;;;;;9.18;8.23;;;;;;;;;;5048485;28;20210;-77
2023/09/07 07:41:37;;;;;;;8.63;7.82;;;;;;;;;;5044773;28;20279;-77
2023/09/07 07:44:10;;;;;;;9.10;8.20;;;;;;;;;;5048818;28;20194;-77
2023/09/07 07:46:37;;;;;;;8.93;8.05;;;;;;;;;;5043419;28;20206;-77
2023/09/07 07:49:04;;;;;;;9.55;8.65;;;;;;;;;;5030018;28;20718;-77
2023/09/07 07:51:32;;;;;;;9.70;8.23;;;;;;;;;;5047254;28;20223;-78
2023/09/07 07:53:59;;;;;;;9.30;8.40;;;;;;;;;;5058449;28;20218;-79
2023/09/07 07:56:26;;;;;;;7.90;7.15;;;;;;;;;;5045575;28;20276;-79
2023/09/07 07:58:55;;;;;;;8.88;8.07;;;;;;;;;;5044145;28;20321;-78
2023/09/07 08:01:23;;;;;;;8.35;7.65;;;;;;;;;;5052666;28;20241;-77
2023/09/07 08:03:51;;;;;;;8.57;7.57;;;;;;;;;;5035988;28;20202;-79
2023/09/07 08:06:19;;;;;;;8.82;8.10;;;;;;;;;;5042662;28;20207;-78
2023/09/07 08:08:46;;;;;;;8.73;7.97;;;;;;;;;;5042056;28;20215;-79
2023/09/07 08:11:14;;;;;;;9.02;8.13;;;;;;;;;;5042503;28;20237;-78
2023/09/07 08:13:44;;;;;;;8.75;7.85;;;;;;;;;;5045909;28;20209;-78
2023/09/07 08:16:11;;;;;;;8.48;7.78;;;;;;;;;;5044590;28;20338;-78
2023/09/07 08:18:40;;;;;;;8.55;7.85;;;;;;;;;;5033625;28;20301;-77
2023/09/07 08:21:08;;;;;;;9.38;7.35;;;;;;;;;;5048656;28;20222;-79
2023/09/07 08:23:36;;;;;;;8.55;7.65;;;;;;;;;;5035813;28;20211;-80
2023/09/07 08:26:03;;;;;;;8.30;7.38;;;;;;;;;;5046719;28;20709;-81
2023/09/07 08:28:31;;;;;;;10.77;7.88;;;;;;;;;;5044575;28;20255;-78
2023/09/07 08:31:00;;;;;;;7.60;6.88;;;;;;;;;;5046284;28;20325;-77
2023/09/07 08:33:35;;;;;;;7.60;6.65;;;;;;;;;;5045892;28;20209;-77
2023/09/07 08:36:04;;;;;;;7.85;7.07;;;;;;;;;;5028509;28;20198;-79
2023/09/07 08:38:31;;;;;;;7.38;6.78;;;;;;;;;;5046922;28;20261;-80
2023/09/07 08:41:05;;;;;;;8.05;7.00;;;;;;;;;;5037278;28;20222;-75
2023/09/07 08:43:35;;;;;;;6.90;6.10;;;;;;;;;;5043641;28;20293;-76
2023/09/07 08:46:09;;;;;;;7.00;6.30;;;;;;;;;;5038456;28;20575;-78
2023/09/07 08:48:37;;;;;;;7.05;6.25;;;;;;;;;;5046612;28;20201;-79
2023/09/07 08:51:06;;;;;;;7.97;6.15;;;;;;;;;;5041026;28;20222;-78
2023/09/07 08:53:33;;;;;;;6.35;5.85;;;;;;;;;;5043535;28;20202;-78
2023/09/07 08:56:01;;;;;;;6.72;6.07;;;;;;;;;;5037306;28;20256;-80
2023/09/07 08:58:29;;;;;;;6.78;6.18;;;;;;;;;;5041522;28;20729;-78
2023/09/07 09:00:57;;;;;;;7.43;6.60;;;;;;;;;;5043739;28;20235;-76
2023/09/07 09:03:34;;;;;;;6.68;6.07;;;;;;;;;;5044654;28;20233;-78
2023/09/07 09:06:02;;;;;;;7.57;6.88;;;;;;;;;;5049266;28;20650;-78
2023/09/07 09:08:29;;;;;;;7.03;6.18;;;;;;;;;;5049553;28;20201;-77
2023/09/07 09:11:03;;;;;;;6.45;5.85;;;;;;;;;;5048176;28;20222;-78
2023/09/07 09:13:31;;;;;;;6.20;5.60;;;;;;;;;;5042379;28;20210;-78
2023/09/07 09:16:01;;;;;;;7.03;6.00;;;;;;;;;;5045124;28;20206;-80
2023/09/07 09:18:29;;;;;;;6.90;6.22;;;;;;;;;;5035862;28;20207;-77
2023/09/07 09:21:00;;;;;;;9.73;6.35;;;;;;;;;;5046874;28;20705;-77
2023/09/07 09:23:33;;;;;;;6.80;6.20;;;;;;;;;;5047018;28;20221;-80
2023/09/07 09:26:06;;;;;;;6.55;5.90;;;;;;;;;;5045324;28;20207;-78
2023/09/07 09:28:34;;;;;;;6.43;5.82;;;;;;;;;;5039691;28;20211;-77
2023/09/07 09:31:03;;;;;;;6.78;6.18;;;;;;;;;;5029799;28;20227;-79
2023/09/07 09:33:31;;;;;;;7.55;5.80;;;;;;;;;;5047187;28;20293;-77
2023/09/07 09:35:58;;;;;;;6.72;6.03;;;;;;;;;;5045911;28;20658;-78
2023/09/07 09:38:26;;;;;;;6.65;5.90;;;;;;;;;;5042477;28;20581;-77
2023/09/07 09:40:53;;;;;;;7.05;6.03;;;;;;;;;;5041684;28;20234;-79
2023/09/07 09:43:21;;;;;;;6.80;6.20;;;;;;;;;;5047666;28;20677;-76
2023/09/07 09:45:52;;;;;;;6.50;5.90;;;;;;;;;;5046802;28;20221;-79
2023/09/07 09:48:20;;;;;;;6.72;6.10;;;;;;;;;;5044079;28;20316;-78
2023/09/07 09:50:50;;;;;;;6.18;5.53;;;;;;;;;;5035931;28;20254;-78
2023/09/07 09:53:20;;;;;;;6.70;6.00;;;;;;;;;;5049709;28;20210;-79
2023/09/07 09:55:54;;;;;;;7.13;6.25;;;;;;;;;;5044741;28;20206;-78
2023/09/07 09:58:21;;;;;;;8.10;6.13;;;;;;;;;;5038969;28;20737;-77
2023/09/07 10:00:51;;;;;;;8.15;5.93;;;;;;;;;;5042783;28;20870;-78
2023/09/07 10:03:45;;;;;;;6.78;6.18;;;;;;;;;;5047226;28;20209;-77
2023/09/07 10:06:23;;;;;;;7.15;5.88;;;;;;;;;;5046571;28;20245;-77
2023/09/07 10:08:56;;;;;;;6.40;5.57;;;;;;;;;;5045097;28;20214;-78
2023/09/07 10:11:32;;;;;;;6.68;6.00;;;;;;;;;;5047498;28;20253;-80
2023/09/07 10:14:00;;;;;;;7.57;5.72;;;;;;;;;;5042353;28;20670;-78
2023/09/07 10:16:27;;;;;;;6.45;5.85;;;;;;;;;;5039525;28;20256;-79
2023/09/07 10:18:55;;;;;;;9.82;5.97;;;;;;;;;;5038554;28;20215;-80
2023/09/07 10:21:26;;;;;;;6.85;5.72;;;;;;;;;;5047070;28;20233;-78
2023/09/07 10:23:53;;;;;;;6.45;5.70;;;;;;;;;;5044201;28;20199;-79
2023/09/07 10:26:21;;;;;;;5.93;5.32;;;;;;;;;;5038336;28;20246;-78
2023/09/07 10:28:59;;;;;;;6.03;5.20;;;;;;;;;;5044513;28;20289;-78
2023/09/07 10:31:26;;;;;;;5.80;5.32;;;;;;;;;;5046411;28;20244;-77
2023/09/07 10:34:13;;;;;;;5.50;5.00;;;;;;;;;;5047006;28;20210;-76
2023/09/07 10:36:41;;;;;;;6.53;5.93;;;;;;;;;;5060577;28;20219;-79
2023/09/07 10:39:08;;;;;;;6.38;5.50;;;;;;;;;;5046209;28;20731;-78
2023/09/07 10:41:42;;;;;;;5.40;4.90;;;;;;;;;;5038991;28;20313;-77
2023/09/07 10:44:13;;;;;;;5.28;4.80;;;;;;;;;;5041447;28;20225;-78
2023/09/07 10:46:41;;;;;;;5.47;5.00;;;;;;;;;;5045846;28;20211;-77
2023/09/07 10:49:09;;;;;;;5.53;5.03;;;;;;;;;;5047609;28;20202;-78
2023/09/07 10:51:44;;;;;;;6.05;5.00;;;;;;;;;;5039774;28;20250;-80
2023/09/07 10:54:17;;;;;;;5.35;4.95;;;;;;;;;;5038327;28;20606;-80
2023/09/07 10:56:46;;;;;;;5.68;5.00;;;;;;;;;;5043979;28;20238;-79
2023/09/07 10:59:14;;;;;;;7.43;5.10;;;;;;;;;;5042811;28;20236;-79
2023/09/07 11:01:41;;;;;;;6.05;5.18;;;;;;;;;;5035730;28;20227;-78
2023/09/07 11:04:11;;;;;;;5.88;5.32;;;;;;;;;;5050156;28;20202;-78
2023/09/07 11:06:40;;;;;;;5.07;4.60;;;;;;;;;;5038811;28;20203;-78
2023/09/07 11:09:10;;;;;;;6.22;5.13;;;;;;;;;;5043683;28;20616;-78
2023/09/07 11:11:37;;;;;;;5.35;4.95;;;;;;;;;;5036255;28;20235;-77
2023/09/07 11:14:04;;;;;;;5.05;4.65;;;;;;;;;;5864062;22;21162;-78
2023/09/07 11:16:35;;;;;;;4.90;4.50;;;;;;;;;;5051360;28;20281;-78
2023/09/07 11:19:04;;;;;;;5.07;4.63;;;;;;;;;;5030461;28;20202;-79
2023/09/07 11:21:34;;;;;;;5.40;4.68;;;;;;;;;;5051149;28;20226;-79
2023/09/07 11:24:04;;;;;;;5.13;4.70;;;;;;;;;;5051317;28;20673;-79
2023/09/07 11:26:45;;;;;;;5.28;4.88;;;;;;;;;;5047076;28;20199;-78
2023/09/07 11:29:16;;;;;;;5.82;5.20;;;;;;;;;;5043413;28;20218;-77
2023/09/07 11:31:44;;;;;;;4.80;4.30;;;;;;;;;;5038501;28;20222;-78
2023/09/07 11:34:12;;;;;;;4.93;4.53;;;;;;;;;;5041540;28;20622;-80
2023/09/07 11:36:43;;;;;;;5.13;4.50;;;;;;;;;;5046921;28;20230;-80
2023/09/07 11:39:14;;;;;;;5.15;4.63;;;;;;;;;;5038997;28;20218;-78
2023/09/07 11:41:42;;;;;;;4.78;4.22;;;;;;;;;;5037781;28;20266;-79
2023/09/07 11:44:10;;;;;;;5.68;4.90;;;;;;;;;;5044735;28;20230;-78
2023/09/07 11:46:38;;;;;;;4.80;4.40;;;;;;;;;;5048887;28;20606;-79
2023/09/07 11:49:05;;;;;;;4.90;4.50;;;;;;;;;;5045916;28;20322;-79
2023/09/07 11:51:33;;;;;;;5.30;4.80;;;;;;;;;;5046960;28;20230;-79
2023/09/07 11:54:02;;;;;;;8.23;4.57;;;;;;;;;;5045105;28;20301;-80
2023/09/07 11:56:30;;;;;;;4.78;4.38;;;;;;;;;;5048563;28;20206;-77
2023/09/07 11:58:57;;;;;;;5.47;4.10;;;;;;;;;;5047537;28;20258;-80
2023/09/07 12:01:26;;;;;;;4.45;4.05;;;;;;;;;;5051538;28;20226;-78
2023/09/07 12:03:53;;;;;;;5.43;4.45;;;;;;;;;;5045011;28;20206;-80
2023/09/07 12:06:21;;;;;;;5.15;4.65;;;;;;;;;;5043284;28;20230;-78
2023/09/07 12:09:01;;;;;;;4.70;4.25;;;;;;;;;;5050815;28;20206;-77
2023/09/07 12:11:28;;;;;;;5.07;4.63;;;;;;;;;;5043017;28;20234;-80
2023/09/07 12:13:55;;;;;;;4.07;3.78;;;;;;;;;;5039336;28;20203;-79
2023/09/07 12:16:23;;;;;;;4.75;4.30;;;;;;;;;;5044566;28;20213;-79
2023/09/07 12:18:50;;;;;;;4.50;4.10;;;;;;;;;;5053592;28;20717;-79
2023/09/07 12:21:17;;;;;;;5.25;4.30;;;;;;;;;;5071265;28;20279;-79
2023/09/07 12:23:44;;;;;;;5.28;4.05;;;;;;;;;;5067076;28;20202;-80
2023/09/07 12:26:16;;;;;;;5.00;3.92;;;;;;;;;;5067889;28;21928;-79
2023/09/07 12:28:44;;;;;;;4.80;4.40;;;;;;;;;;5071772;28;20232;-80
2023/09/07 12:31:12;;;;;;;4.32;3.95;;;;;;;;;;5067145;28;20225;-79
2023/09/07 12:33:39;;;;;;;4.97;4.28;;;;;;;;;;5072200;28;20205;-78
2023/09/07 12:36:09;;;;;;;5.10;4.60;;;;;;;;;;5051369;28;20682;-80
2023/09/07 12:38:37;;;;;;;4.97;4.18;;;;;;;;;;5053860;28;20217;-79
2023/09/07 12:41:04;;;;;;;4.57;4.20;;;;;;;;;;5050673;28;20304;-79
2023/09/07 12:43:33;;;;;;;4.65;4.15;;;;;;;;;;5071316;28;20201;-79
2023/09/07 12:46:01;;;;;;;5.15;4.18;;;;;;;;;;5050473;28;20206;-80
2023/09/07 12:48:29;;;;;;;4.13;3.83;;;;;;;;;;5068080;28;20214;-79
2023/09/07 12:50:56;;;;;;;4.65;3.83;;;;;;;;;;5070207;28;20221;-80
2023/09/07 12:53:27;;;;;;;5.35;4.53;;;;;;;;;;5066425;28;20233;-78
2023/09/07 12:55:54;;;;;;;4.72;4.32;;;;;;;;;;5050127;28;20206;-79
2023/09/07 12:58:21;;;;;;;5.45;4.15;;;;;;;;;;5069137;28;20211;-78
2023/09/07 13:00:51;;;;;;;5.07;4.57;;;;;;;;;;5049852;28;20214;-80
2023/09/07 13:03:18;;;;;;;4.60;4.20;;;;;;;;;;5052834;28;20193;-79
2023/09/07 13:05:46;;;;;;;4.90;4.22;;;;;;;;;;5059109;28;20210;-79
2023/09/07 13:08:13;;;;;;;4.70;4.00;;;;;;;;;;5064514;28;20247;-79
2023/09/07 13:10:41;;;;;;;4.68;4.10;;;;;;;;;;5067612;28;20776;-80
2023/09/07 13:13:08;;;;;;;6.32;4.28;;;;;;;;;;5071076;28;20208;-80
2023/09/07 13:15:35;;;;;;;5.50;3.92;;;;;;;;;;5063769;28;20224;-79
2023/09/07 13:18:03;;;;;;;5.28;4.25;;;;;;;;;;5070803;28;20752;-79
2023/09/07 13:20:30;;;;;;;8.20;4.50;;;;;;;;;;5066928;28;20201;-78
2023/09/07 13:22:58;;;;;;;8.00;4.35;;;;;;;;;;5048538;28;20213;-79
2023/09/07 13:25:26;;;;;;;4.07;3.78;;;;;;;;;;5050948;28;20667;-80
2023/09/07 13:27:53;;;;;;;5.00;4.35;;;;;;;;;;5049899;28;20202;-80
2023/09/07 13:30:20;;;;;;;5.18;4.32;;;;;;;;;;5063378;28;20210;-79
2023/09/07 13:32:49;;;;;;;6.30;4.55;;;;;;;;;;5070304;28;20216;-79
2023/09/07 13:35:17;;;;;;;6.68;4.47;;;;;;;;;;5070243;28;20264;-78
2023/09/07 13:37:44;;;;;;;8.88;4.30;;;;;;;;;;5070204;28;20217;-79
2023/09/07 13:40:14;;;;;;;6.00;4.03;;;;;;;;;;5058809;28;20389;-81
2023/09/07 13:42:43;;;;;;;5.90;4.38;;;;;;;;;;5064076;28;20194;-79
2023/09/07 13:45:10;;;;;;;5.68;4.32;;;;;;;;;;5053680;28;20201;-80
2023/09/07 13:47:38;;;;;;;5.88;4.32;;;;;;;;;;5059802;28;20203;-80
2023/09/07 13:50:06;;;;;;;6.65;4.07;;;;;;;;;;5066674;28;20209;-78
2023/09/07 13:52:33;;;;;;;4.45;4.03;;;;;;;;;;5068040;28;20221;-79
2023/09/07 13:55:00;;;;;;;5.00;4.20;;;;;;;;;;5070349;28;20202;-79
2023/09/07 13:57:28;;;;;;;5.00;4.40;;;;;;;;;;5065336;28;20419;-79
2023/09/07 13:59:55;;;;;;;5.15;4.63;;;;;;;;;;5068743;28;20202;-77
2023/09/07 14:02:23;;;;;;;4.55;4.13;;;;;;;;;;5052735;28;20218;-79
2023/09/07 14:04:50;;;;;;;4.40;4.00;;;;;;;;;;5043686;28;20798;-76
2023/09/07 14:07:17;;;;;;;4.35;3.95;;;;;;;;;;5042316;28;20206;-79
2023/09/07 14:09:45;;;;;;;5.25;3.97;;;;;;;;;;5070615;28;20395;-78
2023/09/07 14:12:12;;;;;;;4.13;3.65;;;;;;;;;;5071794;28;20237;-79
2023/09/07 14:14:40;;;;;;;7.40;4.22;;;;;;;;;;5046090;28;20344;-80
2023/09/07 14:17:08;;;;;;;5.88;3.90;;;;;;;;;;5073998;28;20268;-79
2023/09/07 14:19:35;;;;;;;8.02;4.03;;;;;;;;;;5071746;28;20674;-79
2023/09/07 14:22:03;;;;;;;4.93;4.00;;;;;;;;;;5069429;28;20638;-79
2023/09/07 14:24:30;;;;;;;7.18;4.32;;;;;;;;;;5066634;28;20201;-79
2023/09/07 14:26:57;;;;;;;4.15;3.75;;;;;;;;;;5060941;28;20198;-79
2023/09/07 14:29:26;;;;;;;4.50;4.10;;;;;;;;;;5065988;28;20208;-79
2023/09/07 14:31:54;;;;;;;4.53;4.13;;;;;;;;;;5073175;28;20221;-79
2023/09/07 14:34:21;;;;;;;4.28;3.88;;;;;;;;;;5074054;28;20204;-79
2023/09/07 14:36:48;;;;;;;4.25;3.72;;;;;;;;;;5070209;28;20201;-79
2023/09/07 14:39:18;;;;;;;4.50;4.10;;;;;;;;;;5066687;28;20320;-80
2023/09/07 14:41:45;;;;;;;4.75;4.25;;;;;;;;;;5074052;28;20252;-81
2023/09/07 14:44:12;;;;;;;4.22;3.90;;;;;;;;;;5066004;28;20193;-81
2023/09/07 14:46:40;;;;;;;4.80;4.40;;;;;;;;;;5066205;28;20204;-80
2023/09/07 14:49:07;;;;;;;5.13;4.30;;;;;;;;;;5067856;28;20678;-80
2023/09/07 14:51:34;;;;;;;4.03;3.63;;;;;;;;;;5067685;28;20216;-81